sensor_id;sensor_type;location;lat;lon;timestamp;pressure;altitude;pressure_sealevel;temperature;humidity
7109;BME280;29079;41.930;25.558;2023-02-28T00:00:50;100088.66;;;11.78;100.00
7109;BME280;29079;41.930;25.558;2023-02-28T00:03:23;100094.03;;;11.78;100.00
7109;BME280;29079;41.930;25.558;2023-02-28T00:05:57;100097.88;;;11.85;100.00
7109;BME280;29079;41.930;25.558;2023-02-28T00:08:31;100098.69;;;11.85;100.00
7109;BME280;29079;41.930;25.558;2023-02-28T00:11:08;100103.41;;;11.93;100.00
7109;BME280;29079;41.930;25.558;2023-02-28T00:13:44;100106.84;;;11.84;100.00
7109;BME280;29079;41.930;25.558;2023-02-28T00:16:21;100119.00;;;11.88;100.00
7109;BME280;29079;41.930;25.558;2023-02-28T00:18:55;100115.59;;;11.86;100.00
7109;BME280;29079;41.930;25.558;2023-02-28T00:21:29;100116.38;;;11.77;100.00
7109;BME280;29079;41.930;25.558;2023-02-28T00:24:03;100117.09;;;11.79;100.00
7109;BME280;29079;41.930;25.558;2023-02-28T00:26:38;100102.88;;;11.78;100.00
7109;BME280;29079;41.930;25.558;2023-02-28T00:29:11;100118.09;;;11.78;100.00
7109;BME280;29079;41.930;25.558;2023-02-28T00:31:45;100127.38;;;11.83;100.00
7109;BME280;29079;41.930;25.558;2023-02-28T00:34:18;100141.03;;;11.80;100.00
7109;BME280;29079;41.930;25.558;2023-02-28T00:36:52;100146.44;;;11.69;100.00
7109;BME280;29079;41.930;25.558;2023-02-28T00:39:25;100143.56;;;11.61;100.00
7109;BME280;29079;41.930;25.558;2023-02-28T00:42:01;100145.44;;;11.49;100.00
7109;BME280;29079;41.930;25.558;2023-02-28T00:44:35;100138.59;;;11.56;100.00
7109;BME280;29079;41.930;25.558;2023-02-28T00:47:09;100146.63;;;11.56;100.00
7109;BME280;29079;41.930;25.558;2023-02-28T00:49:42;100151.25;;;11.43;99.94
7109;BME280;29079;41.930;25.558;2023-02-28T00:52:16;100160.97;;;11.44;99.59
7109;BME280;29079;41.930;25.558;2023-02-28T00:54:49;100151.03;;;11.46;98.72
7109;BME280;29079;41.930;25.558;2023-02-28T00:57:25;100154.31;;;11.38;98.29
7109;BME280;29079;41.930;25.558;2023-02-28T00:59:58;100162.97;;;11.30;97.76
7109;BME280;29079;41.930;25.558;2023-02-28T01:02:31;100133.66;;;10.96;96.51
7109;BME280;29079;41.930;25.558;2023-02-28T01:05:05;100166.16;;;11.13;97.58
7109;BME280;29079;41.930;25.558;2023-02-28T01:07:39;100171.06;;;10.96;96.67
7109;BME280;29079;41.930;25.558;2023-02-28T01:10:13;100168.41;;;10.74;95.96
7109;BME280;29079;41.930;25.558;2023-02-28T01:12:51;100177.00;;;10.89;95.86
7109;BME280;29079;41.930;25.558;2023-02-28T01:15:24;100177.47;;;10.71;95.82
7109;BME280;29079;41.930;25.558;2023-02-28T01:17:58;100189.50;;;10.66;95.79
7109;BME280;29079;41.930;25.558;2023-02-28T01:20:32;100182.00;;;10.71;95.58
7109;BME280;29079;41.930;25.558;2023-02-28T01:23:05;100185.38;;;10.73;94.56
7109;BME280;29079;41.930;25.558;2023-02-28T01:25:39;100175.78;;;10.48;94.93
7109;BME280;29079;41.930;25.558;2023-02-28T01:28:14;100186.94;;;10.64;94.77
7109;BME280;29079;41.930;25.558;2023-02-28T01:30:48;100182.59;;;10.63;94.57
7109;BME280;29079;41.930;25.558;2023-02-28T01:33:22;100192.66;;;10.71;94.14
7109;BME280;29079;41.930;25.558;2023-02-28T01:35:58;100189.13;;;10.48;94.12
7109;BME280;29079;41.930;25.558;2023-02-28T01:38:32;100172.09;;;10.26;94.54
7109;BME280;29079;41.930;25.558;2023-02-28T01:41:07;100199.81;;;10.48;94.84
7109;BME280;29079;41.930;25.558;2023-02-28T01:44:00;100193.81;;;10.33;93.21
7109;BME280;29079;41.930;25.558;2023-02-28T01:46:35;100219.53;;;10.34;93.14
7109;BME280;29079;41.930;25.558;2023-02-28T01:49:13;100212.50;;;10.44;93.11
7109;BME280;29079;41.930;25.558;2023-02-28T01:51:49;100214.75;;;10.26;93.35
7109;BME280;29079;41.930;25.558;2023-02-28T01:54:30;100225.44;;;10.26;92.89
7109;BME280;29079;41.930;25.558;2023-02-28T01:57:06;100218.91;;;10.30;92.45
7109;BME280;29079;41.930;25.558;2023-02-28T01:59:46;100211.78;;;9.95;92.77
7109;BME280;29079;41.930;25.558;2023-02-28T02:02:23;100233.75;;;10.10;92.33
7109;BME280;29079;41.930;25.558;2023-02-28T02:05:04;100211.09;;;9.80;92.09
7109;BME280;29079;41.930;25.558;2023-02-28T02:07:40;100234.03;;;9.58;92.83
7109;BME280;29079;41.930;25.558;2023-02-28T02:10:16;100233.69;;;9.63;92.61
7109;BME280;29079;41.930;25.558;2023-02-28T02:13:07;100227.53;;;9.74;91.59
7109;BME280;29079;41.930;25.558;2023-02-28T02:15:49;100247.53;;;9.55;91.03
7109;BME280;29079;41.930;25.558;2023-02-28T02:18:32;100239.56;;;9.55;91.67
7109;BME280;29079;41.930;25.558;2023-02-28T02:24:49;100250.28;;;9.67;91.57
7109;BME280;29079;41.930;25.558;2023-02-28T02:27:48;100241.56;;;9.65;91.17
7109;BME280;29079;41.930;25.558;2023-02-28T02:31:17;100265.47;;;9.53;90.93
7109;BME280;29079;41.930;25.558;2023-02-28T02:34:26;100269.97;;;9.53;90.45
7109;BME280;29079;41.930;25.558;2023-02-28T02:37:13;100267.25;;;9.66;89.16
7109;BME280;29079;41.930;25.558;2023-02-28T02:39:53;100262.13;;;9.38;89.55
7109;BME280;29079;41.930;25.558;2023-02-28T02:42:29;100272.31;;;9.45;89.38
7109;BME280;29079;41.930;25.558;2023-02-28T02:45:07;100153.00;;;8.63;89.04
7109;BME280;29079;41.930;25.558;2023-02-28T02:47:44;100276.97;;;9.54;87.29
7109;BME280;29079;41.930;25.558;2023-02-28T02:50:23;100250.16;;;8.94;88.72
7109;BME280;29079;41.930;25.558;2023-02-28T02:53:01;100274.41;;;9.02;89.31
7109;BME280;29079;41.930;25.558;2023-02-28T02:55:39;100274.94;;;9.07;89.19
7109;BME280;29079;41.930;25.558;2023-02-28T02:58:16;100276.38;;;8.87;88.43
7109;BME280;29079;41.930;25.558;2023-02-28T03:00:55;100280.06;;;8.85;89.13
7109;BME280;29079;41.930;25.558;2023-02-28T03:03:32;100281.03;;;9.10;88.27
7109;BME280;29079;41.930;25.558;2023-02-28T03:06:08;100294.00;;;9.01;88.46
7109;BME280;29079;41.930;25.558;2023-02-28T03:08:42;100296.22;;;9.07;89.11
7109;BME280;29079;41.930;25.558;2023-02-28T03:11:16;100298.72;;;8.98;88.01
7109;BME280;29079;41.930;25.558;2023-02-28T03:17:08;100295.41;;;9.07;88.53
7109;BME280;29079;41.930;25.558;2023-02-28T03:19:52;100301.88;;;9.16;86.93
7109;BME280;29079;41.930;25.558;2023-02-28T03:22:45;100312.88;;;8.98;87.26
7109;BME280;29079;41.930;25.558;2023-02-28T03:25:32;100289.56;;;8.89;86.55
7109;BME280;29079;41.930;25.558;2023-02-28T03:28:11;100276.13;;;8.91;86.45
7109;BME280;29079;41.930;25.558;2023-02-28T03:30:51;100299.16;;;8.79;86.61
7109;BME280;29079;41.930;25.558;2023-02-28T03:33:29;100299.88;;;8.94;86.74
7109;BME280;29079;41.930;25.558;2023-02-28T03:36:06;100292.50;;;9.23;86.03
7109;BME280;29079;41.930;25.558;2023-02-28T03:38:45;100293.16;;;9.14;85.11
7109;BME280;29079;41.930;25.558;2023-02-28T03:41:24;100293.91;;;9.03;85.18
7109;BME280;29079;41.930;25.558;2023-02-28T03:44:04;100291.56;;;8.85;85.72
7109;BME280;29079;41.930;25.558;2023-02-28T03:46:42;100287.00;;;8.87;85.18
7109;BME280;29079;41.930;25.558;2023-02-28T03:49:21;100304.34;;;8.80;85.46
7109;BME280;29079;41.930;25.558;2023-02-28T03:51:58;100291.38;;;8.63;85.99
7109;BME280;29079;41.930;25.558;2023-02-28T03:54:39;100298.72;;;8.85;86.08
7109;BME280;29079;41.930;25.558;2023-02-28T03:57:20;100311.78;;;8.62;86.24
7109;BME280;29079;41.930;25.558;2023-02-28T03:59:57;100303.81;;;8.88;86.10
7109;BME280;29079;41.930;25.558;2023-02-28T04:02:33;100283.25;;;8.90;84.86
7109;BME280;29079;41.930;25.558;2023-02-28T04:05:07;100319.16;;;8.84;84.92
7109;BME280;29079;41.930;25.558;2023-02-28T04:07:41;100323.72;;;8.82;85.40
7109;BME280;29079;41.930;25.558;2023-02-28T04:10:16;100332.56;;;8.96;85.31
7109;BME280;29079;41.930;25.558;2023-02-28T04:12:51;100334.28;;;8.97;84.86
7109;BME280;29079;41.930;25.558;2023-02-28T04:15:25;100338.09;;;8.80;85.35
7109;BME280;29079;41.930;25.558;2023-02-28T04:18:00;100347.97;;;8.65;84.85
7109;BME280;29079;41.930;25.558;2023-02-28T04:20:33;100345.53;;;8.62;85.24
7109;BME280;29079;41.930;25.558;2023-02-28T04:23:07;100305.31;;;8.39;85.46
7109;BME280;29079;41.930;25.558;2023-02-28T04:25:41;100344.78;;;8.60;85.69
7109;BME280;29079;41.930;25.558;2023-02-28T04:28:15;100341.38;;;8.58;85.07
7109;BME280;29079;41.930;25.558;2023-02-28T04:30:54;100344.16;;;8.69;85.79
7109;BME280;29079;41.930;25.558;2023-02-28T04:33:28;100324.56;;;8.57;85.48
7109;BME280;29079;41.930;25.558;2023-02-28T04:36:03;100353.44;;;8.76;85.62
7109;BME280;29079;41.930;25.558;2023-02-28T04:38:38;100349.19;;;8.86;84.92
7109;BME280;29079;41.930;25.558;2023-02-28T04:41:13;100341.19;;;8.74;85.47
7109;BME280;29079;41.930;25.558;2023-02-28T04:43:47;100354.50;;;8.86;84.97
7109;BME280;29079;41.930;25.558;2023-02-28T04:46:20;100358.50;;;8.66;85.45
7109;BME280;29079;41.930;25.558;2023-02-28T04:48:54;100343.72;;;8.62;85.50
7109;BME280;29079;41.930;25.558;2023-02-28T04:51:27;100352.66;;;8.74;85.91
7109;BME280;29079;41.930;25.558;2023-02-28T04:54:01;100365.22;;;8.72;85.85
7109;BME280;29079;41.930;25.558;2023-02-28T04:56:36;100379.28;;;8.61;86.02
7109;BME280;29079;41.930;25.558;2023-02-28T04:59:09;100374.91;;;8.60;86.26
7109;BME280;29079;41.930;25.558;2023-02-28T05:01:46;100381.19;;;8.72;86.62
7109;BME280;29079;41.930;25.558;2023-02-28T05:04:20;100386.16;;;8.64;85.76
7109;BME280;29079;41.930;25.558;2023-02-28T05:06:53;100391.81;;;8.59;86.72
7109;BME280;29079;41.930;25.558;2023-02-28T05:09:27;100392.69;;;8.60;86.35
7109;BME280;29079;41.930;25.558;2023-02-28T05:12:03;100392.69;;;8.60;86.85
7109;BME280;29079;41.930;25.558;2023-02-28T05:14:37;100397.03;;;8.61;86.00
7109;BME280;29079;41.930;25.558;2023-02-28T05:17:11;100401.56;;;8.46;87.55
7109;BME280;29079;41.930;25.558;2023-02-28T05:19:44;100403.19;;;8.48;87.07
7109;BME280;29079;41.930;25.558;2023-02-28T05:22:17;100402.88;;;8.39;87.94
7109;BME280;29079;41.930;25.558;2023-02-28T05:24:51;100393.34;;;8.22;88.52
7109;BME280;29079;41.930;25.558;2023-02-28T05:27:25;100403.41;;;8.31;88.44
7109;BME280;29079;41.930;25.558;2023-02-28T05:30:00;100412.31;;;8.30;89.31
7109;BME280;29079;41.930;25.558;2023-02-28T05:32:35;100406.34;;;8.26;88.39
7109;BME280;29079;41.930;25.558;2023-02-28T05:35:10;100420.47;;;8.41;89.46
7109;BME280;29079;41.930;25.558;2023-02-28T05:37:44;100427.44;;;8.57;87.95
7109;BME280;29079;41.930;25.558;2023-02-28T05:40:17;100423.50;;;8.35;88.80
7109;BME280;29079;41.930;25.558;2023-02-28T05:42:53;100416.06;;;8.13;90.23
7109;BME280;29079;41.930;25.558;2023-02-28T05:45:27;100420.25;;;8.17;90.55
7109;BME280;29079;41.930;25.558;2023-02-28T05:48:01;100434.00;;;8.24;89.29
7109;BME280;29079;41.930;25.558;2023-02-28T05:50:34;100444.97;;;8.32;90.20
7109;BME280;29079;41.930;25.558;2023-02-28T05:53:08;100431.94;;;8.00;91.00
7109;BME280;29079;41.930;25.558;2023-02-28T05:55:41;100442.34;;;7.90;90.78
7109;BME280;29079;41.930;25.558;2023-02-28T05:58:15;100419.34;;;8.04;91.94
7109;BME280;29079;41.930;25.558;2023-02-28T06:00:49;100420.66;;;8.11;90.40
7109;BME280;29079;41.930;25.558;2023-02-28T06:03:22;100427.81;;;8.23;91.00
7109;BME280;29079;41.930;25.558;2023-02-28T06:05:56;100429.25;;;8.14;91.15
7109;BME280;29079;41.930;25.558;2023-02-28T06:08:30;100446.97;;;8.43;90.49
7109;BME280;29079;41.930;25.558;2023-02-28T06:11:04;100451.75;;;8.23;90.64
7109;BME280;29079;41.930;25.558;2023-02-28T06:13:40;100462.16;;;8.41;90.05
7109;BME280;29079;41.930;25.558;2023-02-28T06:16:13;100479.13;;;8.25;90.60
7109;BME280;29079;41.930;25.558;2023-02-28T06:18:47;100475.41;;;8.28;90.65
7109;BME280;29079;41.930;25.558;2023-02-28T06:21:21;100475.84;;;8.34;90.82
7109;BME280;29079;41.930;25.558;2023-02-28T06:23:55;100471.34;;;8.22;90.90
7109;BME280;29079;41.930;25.558;2023-02-28T06:26:29;100461.16;;;8.14;91.05
7109;BME280;29079;41.930;25.558;2023-02-28T06:29:04;100486.41;;;8.22;90.91
7109;BME280;29079;41.930;25.558;2023-02-28T06:31:37;100493.19;;;7.98;92.51
7109;BME280;29079;41.930;25.558;2023-02-28T06:34:12;100506.06;;;8.19;91.39
7109;BME280;29079;41.930;25.558;2023-02-28T06:36:46;100501.81;;;8.16;91.69
7109;BME280;29079;41.930;25.558;2023-02-28T06:39:19;100509.03;;;8.00;93.89
7109;BME280;29079;41.930;25.558;2023-02-28T06:41:53;100503.91;;;8.11;94.38
7109;BME280;29079;41.930;25.558;2023-02-28T06:44:29;100488.06;;;7.81;95.38
7109;BME280;29079;41.930;25.558;2023-02-28T06:47:07;100489.88;;;7.80;95.80
7109;BME280;29079;41.930;25.558;2023-02-28T06:49:40;100487.41;;;8.06;95.69
7109;BME280;29079;41.930;25.558;2023-02-28T06:52:14;100489.28;;;8.04;95.61
7109;BME280;29079;41.930;25.558;2023-02-28T06:54:48;100492.06;;;8.02;95.53
7109;BME280;29079;41.930;25.558;2023-02-28T06:57:32;100480.56;;;8.02;95.16
7109;BME280;29079;41.930;25.558;2023-02-28T07:00:09;100482.53;;;8.13;95.42
7109;BME280;29079;41.930;25.558;2023-02-28T07:02:44;100487.41;;;7.77;96.29
7109;BME280;29079;41.930;25.558;2023-02-28T07:05:19;100479.53;;;7.76;96.69
7109;BME280;29079;41.930;25.558;2023-02-28T07:07:52;100489.28;;;8.04;95.83
7109;BME280;29079;41.930;25.558;2023-02-28T07:10:25;100493.09;;;7.85;96.86
7109;BME280;29079;41.930;25.558;2023-02-28T07:13:00;100499.38;;;7.84;96.07
7109;BME280;29079;41.930;25.558;2023-02-28T07:15:36;100501.84;;;7.88;97.04
7109;BME280;29079;41.930;25.558;2023-02-28T07:18:14;100495.50;;;7.90;97.39
7109;BME280;29079;41.930;25.558;2023-02-28T07:20:47;100503.28;;;7.93;97.03
7109;BME280;29079;41.930;25.558;2023-02-28T07:23:20;100504.50;;;8.16;97.21
7109;BME280;29079;41.930;25.558;2023-02-28T07:25:54;100499.63;;;7.94;97.40
7109;BME280;29079;41.930;25.558;2023-02-28T07:28:27;100505.81;;;8.09;96.83
7109;BME280;29079;41.930;25.558;2023-02-28T07:31:07;100504.84;;;8.10;97.53
7109;BME280;29079;41.930;25.558;2023-02-28T07:33:41;100513.81;;;8.09;97.60
7109;BME280;29079;41.930;25.558;2023-02-28T07:36:16;100508.09;;;7.87;98.11
7109;BME280;29079;41.930;25.558;2023-02-28T07:38:50;100496.03;;;7.81;98.55
7109;BME280;29079;41.930;25.558;2023-02-28T07:41:23;100479.53;;;7.90;98.38
7109;BME280;29079;41.930;25.558;2023-02-28T07:44:00;100497.28;;;7.90;99.38
7109;BME280;29079;41.930;25.558;2023-02-28T07:46:36;100495.59;;;8.03;98.99
7109;BME280;29079;41.930;25.558;2023-02-28T07:49:10;100508.28;;;8.27;97.69
7109;BME280;29079;41.930;25.558;2023-02-28T07:51:43;100503.72;;;8.14;97.70
7109;BME280;29079;41.930;25.558;2023-02-28T07:54:17;100497.16;;;8.20;97.85
7109;BME280;29079;41.930;25.558;2023-02-28T07:56:50;100494.41;;;8.07;97.32
7109;BME280;29079;41.930;25.558;2023-02-28T07:59:24;100508.69;;;7.92;98.46
7109;BME280;29079;41.930;25.558;2023-02-28T08:02:00;100514.56;;;7.97;98.46
7109;BME280;29079;41.930;25.558;2023-02-28T08:04:33;100520.34;;;8.04;98.98
7109;BME280;29079;41.930;25.558;2023-02-28T08:07:07;100525.38;;;8.08;97.62
7109;BME280;29079;41.930;25.558;2023-02-28T08:09:42;100524.44;;;7.95;98.06
7109;BME280;29079;41.930;25.558;2023-02-28T08:12:18;100521.00;;;7.93;98.18
7109;BME280;29079;41.930;25.558;2023-02-28T08:14:52;100512.81;;;8.10;98.18
7109;BME280;29079;41.930;25.558;2023-02-28T08:17:28;100516.63;;;8.21;98.02
7109;BME280;29079;41.930;25.558;2023-02-28T08:20:01;100523.22;;;8.42;97.14
7109;BME280;29079;41.930;25.558;2023-02-28T08:22:36;100521.91;;;8.35;96.62
7109;BME280;29079;41.930;25.558;2023-02-28T08:25:09;100518.72;;;8.15;97.80
7109;BME280;29079;41.930;25.558;2023-02-28T08:27:42;100528.00;;;8.37;97.72
7109;BME280;29079;41.930;25.558;2023-02-28T08:30:16;100528.94;;;8.36;97.21
7109;BME280;29079;41.930;25.558;2023-02-28T08:32:51;100520.88;;;8.37;97.44
7109;BME280;29079;41.930;25.558;2023-02-28T08:35:24;100517.66;;;8.32;97.77
7109;BME280;29079;41.930;25.558;2023-02-28T08:37:58;100516.56;;;8.08;98.45
7109;BME280;29079;41.930;25.558;2023-02-28T08:40:31;100520.75;;;8.12;99.03
7109;BME280;29079;41.930;25.558;2023-02-28T08:43:05;100519.09;;;8.24;99.18
7109;BME280;29079;41.930;25.558;2023-02-28T08:45:38;100520.03;;;8.23;99.80
7109;BME280;29079;41.930;25.558;2023-02-28T08:48:13;100522.88;;;8.34;99.51
7109;BME280;29079;41.930;25.558;2023-02-28T08:50:57;100516.06;;;8.30;100.00
7109;BME280;29079;41.930;25.558;2023-02-28T08:53:39;100521.75;;;8.38;100.00
7109;BME280;29079;41.930;25.558;2023-02-28T08:56:14;100508.47;;;8.24;100.00
7109;BME280;29079;41.930;25.558;2023-02-28T08:58:50;100515.66;;;8.36;100.00
7109;BME280;29079;41.930;25.558;2023-02-28T09:01:24;100518.59;;;8.31;100.00
7109;BME280;29079;41.930;25.558;2023-02-28T09:04:02;100519.31;;;8.21;100.00
7109;BME280;29079;41.930;25.558;2023-02-28T09:06:36;100516.91;;;8.16;100.00
7109;BME280;29079;41.930;25.558;2023-02-28T09:09:10;100517.38;;;8.23;100.00
7109;BME280;29079;41.930;25.558;2023-02-28T09:11:49;100525.66;;;8.47;100.00
7109;BME280;29079;41.930;25.558;2023-02-28T09:14:23;100524.03;;;8.44;100.00
7109;BME280;29079;41.930;25.558;2023-02-28T09:16:57;100514.25;;;8.45;100.00
7109;BME280;29079;41.930;25.558;2023-02-28T09:19:33;100514.13;;;8.46;100.00
7109;BME280;29079;41.930;25.558;2023-02-28T09:22:06;100519.81;;;8.54;100.00
7109;BME280;29079;41.930;25.558;2023-02-28T09:24:40;100507.66;;;8.50;100.00
7109;BME280;29079;41.930;25.558;2023-02-28T09:27:13;100498.53;;;8.40;100.00
7109;BME280;29079;41.930;25.558;2023-02-28T09:29:46;100493.91;;;8.44;100.00
7109;BME280;29079;41.930;25.558;2023-02-28T09:32:20;100501.50;;;8.50;100.00
7109;BME280;29079;41.930;25.558;2023-02-28T09:34:55;100498.06;;;8.48;100.00
7109;BME280;29079;41.930;25.558;2023-02-28T09:37:29;100493.34;;;8.24;100.00
7109;BME280;29079;41.930;25.558;2023-02-28T09:40:03;100482.78;;;8.51;100.00
7109;BME280;29079;41.930;25.558;2023-02-28T09:42:37;100487.69;;;8.43;100.00
7109;BME280;29079;41.930;25.558;2023-02-28T09:45:19;100481.44;;;8.59;100.00
7109;BME280;29079;41.930;25.558;2023-02-28T09:47:56;100487.22;;;8.78;100.00
7109;BME280;29079;41.930;25.558;2023-02-28T09:50:35;100486.94;;;8.83;100.00
7109;BME280;29079;41.930;25.558;2023-02-28T09:53:18;100489.47;;;8.71;100.00
7109;BME280;29079;41.930;25.558;2023-02-28T09:55:56;100497.66;;;8.68;100.00
7109;BME280;29079;41.930;25.558;2023-02-28T09:58:36;100497.16;;;8.76;100.00
7109;BME280;29079;41.930;25.558;2023-02-28T10:01:19;100501.06;;;8.70;100.00
7109;BME280;29079;41.930;25.558;2023-02-28T10:03:56;100498.91;;;8.63;100.00
7109;BME280;29079;41.930;25.558;2023-02-28T10:06:38;100505.53;;;8.70;100.00
7109;BME280;29079;41.930;25.558;2023-02-28T10:09:18;100503.06;;;8.67;100.00
7109;BME280;29079;41.930;25.558;2023-02-28T10:12:02;100490.78;;;8.79;100.00
7109;BME280;29079;41.930;25.558;2023-02-28T10:14:38;100485.66;;;8.88;100.00
7109;BME280;29079;41.930;25.558;2023-02-28T10:17:20;100484.56;;;8.78;100.00
7109;BME280;29079;41.930;25.558;2023-02-28T10:19:58;100481.38;;;8.73;100.00
7109;BME280;29079;41.930;25.558;2023-02-28T10:22:52;100454.72;;;8.60;100.00
7109;BME280;29079;41.930;25.558;2023-02-28T10:25:29;100483.84;;;8.76;100.00
7109;BME280;29079;41.930;25.558;2023-02-28T10:28:09;100480.13;;;8.92;100.00
7109;BME280;29079;41.930;25.558;2023-02-28T10:30:47;100477.03;;;8.85;100.00
7109;BME280;29079;41.930;25.558;2023-02-28T10:33:26;100463.19;;;8.80;100.00
7109;BME280;29079;41.930;25.558;2023-02-28T10:36:02;100459.06;;;8.88;100.00
7109;BME280;29079;41.930;25.558;2023-02-28T10:38:40;100459.72;;;8.92;100.00
7109;BME280;29079;41.930;25.558;2023-02-28T10:41:15;100453.13;;;8.98;100.00
7109;BME280;29079;41.930;25.558;2023-02-28T10:43:52;100438.66;;;9.02;100.00
7109;BME280;29079;41.930;25.558;2023-02-28T10:46:25;100444.09;;;9.00;100.00
7109;BME280;29079;41.930;25.558;2023-02-28T10:49:03;100442.75;;;8.80;99.79
7109;BME280;29079;41.930;25.558;2023-02-28T10:51:39;100449.31;;;9.02;100.00
7109;BME280;29079;41.930;25.558;2023-02-28T10:54:18;100454.28;;;8.94;99.27
7109;BME280;29079;41.930;25.558;2023-02-28T10:57:15;100444.38;;;8.96;99.49
7109;BME280;29079;41.930;25.558;2023-02-28T10:59:51;100438.75;;;9.00;99.58
7109;BME280;29079;41.930;25.558;2023-02-28T11:02:33;100439.78;;;8.85;98.31
7109;BME280;29079;41.930;25.558;2023-02-28T11:05:29;100429.25;;;8.83;99.40
7109;BME280;29079;41.930;25.558;2023-02-28T11:08:06;100422.97;;;8.97;99.06
7109;BME280;29079;41.930;25.558;2023-02-28T11:10:47;100425.72;;;8.96;98.67
7109;BME280;29079;41.930;25.558;2023-02-28T11:13:26;100431.28;;;8.93;98.79
7109;BME280;29079;41.930;25.558;2023-02-28T11:16:03;100426.28;;;9.01;97.74
7109;BME280;29079;41.930;25.558;2023-02-28T11:18:41;100427.13;;;9.01;98.87
7109;BME280;29079;41.930;25.558;2023-02-28T11:21:19;100435.81;;;9.18;98.69
7109;BME280;29079;41.930;25.558;2023-02-28T11:23:58;100423.31;;;9.05;97.21
7109;BME280;29079;41.930;25.558;2023-02-28T11:26:41;100425.34;;;9.02;97.42
7109;BME280;29079;41.930;25.558;2023-02-28T11:29:20;100436.50;;;8.94;98.10
7109;BME280;29079;41.930;25.558;2023-02-28T11:32:12;100429.16;;;8.98;97.70
7109;BME280;29079;41.930;25.558;2023-02-28T11:35:02;100432.16;;;8.93;98.08
7109;BME280;29079;41.930;25.558;2023-02-28T11:38:00;100409.25;;;8.91;97.47
7109;BME280;29079;41.930;25.558;2023-02-28T11:40:41;100433.41;;;8.87;97.47
7109;BME280;29079;41.930;25.558;2023-02-28T11:43:27;100422.09;;;8.84;97.81
7109;BME280;29079;41.930;25.558;2023-02-28T11:46:15;100419.13;;;8.88;97.93
7109;BME280;29079;41.930;25.558;2023-02-28T11:48:57;100411.66;;;8.81;100.00
7109;BME280;29079;41.930;25.558;2023-02-28T11:51:34;100418.47;;;8.72;100.00
7109;BME280;29079;41.930;25.558;2023-02-28T11:57:32;100414.56;;;8.91;100.00
7109;BME280;29079;41.930;25.558;2023-02-28T12:00:15;100413.13;;;8.72;100.00
7109;BME280;29079;41.930;25.558;2023-02-28T12:03:01;100403.00;;;8.64;100.00
7109;BME280;29079;41.930;25.558;2023-02-28T12:05:43;100403.72;;;8.53;100.00
7109;BME280;29079;41.930;25.558;2023-02-28T12:08:29;100411.63;;;8.68;100.00
7109;BME280;29079;41.930;25.558;2023-02-28T12:11:15;100399.00;;;8.44;100.00
7109;BME280;29079;41.930;25.558;2023-02-28T12:14:12;100421.94;;;8.60;100.00
7109;BME280;29079;41.930;25.558;2023-02-28T12:16:58;100412.69;;;8.65;100.00
7109;BME280;29079;41.930;25.558;2023-02-28T12:19:39;100413.63;;;8.51;100.00
7109;BME280;29079;41.930;25.558;2023-02-28T12:22:29;100417.88;;;8.54;100.00
7109;BME280;29079;41.930;25.558;2023-02-28T12:25:21;100420.97;;;8.61;100.00
7109;BME280;29079;41.930;25.558;2023-02-28T12:27:56;100413.97;;;8.60;100.00
7109;BME280;29079;41.930;25.558;2023-02-28T12:30:32;100401.84;;;8.41;100.00
7109;BME280;29079;41.930;25.558;2023-02-28T12:33:12;100395.97;;;8.36;100.00
7109;BME280;29079;41.930;25.558;2023-02-28T12:35:51;100402.25;;;8.62;100.00
7109;BME280;29079;41.930;25.558;2023-02-28T12:38:29;100407.78;;;8.59;100.00
7109;BME280;29079;41.930;25.558;2023-02-28T12:41:08;100395.31;;;8.47;100.00
7109;BME280;29079;41.930;25.558;2023-02-28T12:43:48;100393.59;;;8.46;100.00
7109;BME280;29079;41.930;25.558;2023-02-28T12:46:24;100393.41;;;8.62;100.00
7109;BME280;29079;41.930;25.558;2023-02-28T12:49:06;100400.78;;;8.71;100.00
7109;BME280;29079;41.930;25.558;2023-02-28T12:51:43;100389.28;;;8.70;100.00
7109;BME280;29079;41.930;25.558;2023-02-28T12:54:24;100385.44;;;8.62;100.00
7109;BME280;29079;41.930;25.558;2023-02-28T12:57:06;100390.56;;;8.65;100.00
7109;BME280;29079;41.930;25.558;2023-02-28T12:59:47;100382.53;;;8.52;100.00
7109;BME280;29079;41.930;25.558;2023-02-28T13:08:57;100389.34;;;8.56;100.00
7109;BME280;29079;41.930;25.558;2023-02-28T13:11:39;100382.31;;;8.55;100.00
7109;BME280;29079;41.930;25.558;2023-02-28T13:14:22;100382.78;;;8.62;100.00
7109;BME280;29079;41.930;25.558;2023-02-28T13:17:03;100388.22;;;8.60;100.00
7109;BME280;29079;41.930;25.558;2023-02-28T13:19:45;100381.38;;;8.56;100.00
7109;BME280;29079;41.930;25.558;2023-02-28T13:22:37;100383.06;;;8.44;100.00
7109;BME280;29079;41.930;25.558;2023-02-28T13:35:13;100366.81;;;8.34;100.00
7109;BME280;29079;41.930;25.558;2023-02-28T13:37:47;100370.19;;;8.24;100.00
7109;BME280;29079;41.930;25.558;2023-02-28T13:40:30;100366.97;;;8.18;100.00
7109;BME280;29079;41.930;25.558;2023-02-28T13:43:09;100360.28;;;8.26;100.00
7109;BME280;29079;41.930;25.558;2023-02-28T13:46:05;100375.59;;;8.22;100.00
7109;BME280;29079;41.930;25.558;2023-02-28T13:48:40;100373.19;;;8.32;100.00
7109;BME280;29079;41.930;25.558;2023-02-28T13:51:39;100375.16;;;8.15;100.00
7109;BME280;29079;41.930;25.558;2023-02-28T13:54:34;100377.59;;;8.18;100.00
7109;BME280;29079;41.930;25.558;2023-02-28T13:57:22;100369.47;;;8.07;100.00
7109;BME280;29079;41.930;25.558;2023-02-28T14:00:13;100374.31;;;8.15;100.00
7109;BME280;29079;41.930;25.558;2023-02-28T14:03:02;100375.50;;;8.24;100.00
7109;BME280;29079;41.930;25.558;2023-02-28T14:05:38;100367.41;;;7.98;100.00
7109;BME280;29079;41.930;25.558;2023-02-28T14:08:16;100381.50;;;8.13;100.00
7109;BME280;29079;41.930;25.558;2023-02-28T14:11:04;100369.66;;;8.04;100.00
7109;BME280;29079;41.930;25.558;2023-02-28T14:13:41;100370.03;;;8.12;100.00
7109;BME280;29079;41.930;25.558;2023-02-28T14:16:21;100367.91;;;7.90;100.00